Aviation Digital Data Service (ADDS)

Output produced by METARs form (0114 UTC 09 February 2016)
found at http://aviationweather.gov/adds/metars/
 
KGNV 082347Z 0900/0924 25015G25KT P6SM SCT040 BKN070 
     FM090400 28010G18KT P6SM SCT050 BKN080 
     FM091500 28017G27KT P6SM BKN050